Airfield :
LOGIN :

Register | Disclaimer

   EN    FR    IT 

 










Legend :    VFR   Marginal VFR   IFR   Intensive IFR   Very Intensive IFR
Visi :
Ceiling :
>= 8 km
>= 3000ft
5 to 8 km
1000 to 3000 ft
1500m to 5 km
500 to 1000 ft
800 to 1500m
200 to 500 ft
< 800m
< 200 ft
Symbols :   Thunderstorms  Fog  Heavy snow  Heavy precipitations  Wind > 20 kt
SIGMETs :     Misc.  Thunderstorms  Icing  Turbulence  Mountain Waves  Volcanic Ashes






- Airport Elevation : 913 ft


LFSX - Luxeuil

CURRENT METAR :
  • 091600Z AUTO 29010KT 9999 -RA ////// 06/05 Q1011

EXPIRED METARs :
  • 091530Z AUTO 29009KT 9999 RA SCT022 BKN027 BKN032 06/05 Q1010
  • 091500Z AUTO 29012KT 260V320 9999 -RA BKN019 BKN025 OVC037 07/05 Q1009
  • 091430Z AUTO 29015G26KT 9999 SCT014/// OVC021/// ///TCU 07/05 Q1008
  • 091400Z AUTO 26016KT 9999 -DZ BKN015/// OVC021/// ///TCU 07/06 Q1007
  • 091330Z AUTO 26016KT 9000 -RA BKN013 OVC019 07/06 Q1006

TAF TAF LFSX
Valid from the 09 at 15:00 until the 10 at 15:00 UTC


091400Z 0915/1015 29015KT 9000 BKN016
TEMPO 0915/0924 -RA
TEMPO 1003/1009 4000 BR BKN009
PROB40 1005/1008 2000



MET'MAP, your aeronautical weather chart ! - Copyright ORBIFLY December 2007 - Disclaimer

ORBIFLY MET'MAP TEAM :

Programming & Development : Alexandra Zaïnal
Concept & original design : Baudouin d'Aumeries
Assistance for programming : Marc-Olivier Méhu
Technical & hardware support : Manuel Goepfert

Contact : metmap@orbifly.com




SOURCES & CREDITS :

   NOAA